Terminal Aerodrome Forecast
Issued by NWS Amarillo, TX

Home | Current Version | Previous Version | Text Only | Print | Product List | Glossary On
Versions: 1 2 3 4 5 6 7 8 9 10 11 12 13
000
FTUS44 KAMA 300500
TAFGUY
TAF
KGUY 300520Z 3006/0106 18014KT P6SM SCT040 BKN090
     FM300800 20012KT P6SM SCT120
     FM301500 22013KT P6SM FEW090
     FM010100 15008KT P6SM SCT200=

USA.gov is the U.S. government's official web portal to all federal, state and local government web resources and services.